sensor_id;sensor_type;location;lat;lon;timestamp;P1;durP1;ratioP1;P2;durP2;ratioP2
3801;SDS011;1916;51.798;12.246;2023-02-05T00:00:32;20.20;;;12.70;;
3801;SDS011;1916;51.798;12.246;2023-02-05T00:02:35;27.20;;;15.50;;
3801;SDS011;1916;51.798;12.246;2023-02-05T00:04:37;27.60;;;15.07;;
3801;SDS011;1916;51.798;12.246;2023-02-05T00:06:40;17.67;;;12.80;;
3801;SDS011;1916;51.798;12.246;2023-02-05T00:08:42;21.70;;;12.60;;
3801;SDS011;1916;51.798;12.246;2023-02-05T00:10:52;19.97;;;12.67;;
3801;SDS011;1916;51.798;12.246;2023-02-05T00:12:56;19.00;;;13.33;;
3801;SDS011;1916;51.798;12.246;2023-02-05T00:14:59;21.20;;;12.57;;
3801;SDS011;1916;51.798;12.246;2023-02-05T00:17:02;24.13;;;13.57;;
3801;SDS011;1916;51.798;12.246;2023-02-05T00:19:04;16.67;;;12.73;;
3801;SDS011;1916;51.798;12.246;2023-02-05T00:21:07;17.40;;;11.77;;
3801;SDS011;1916;51.798;12.246;2023-02-05T00:23:09;14.80;;;10.13;;
3801;SDS011;1916;51.798;12.246;2023-02-05T00:25:11;20.40;;;11.17;;
3801;SDS011;1916;51.798;12.246;2023-02-05T00:27:14;16.70;;;11.70;;
3801;SDS011;1916;51.798;12.246;2023-02-05T00:29:19;17.03;;;11.43;;
3801;SDS011;1916;51.798;12.246;2023-02-05T00:31:22;17.43;;;11.50;;
3801;SDS011;1916;51.798;12.246;2023-02-05T00:33:25;17.63;;;11.93;;
3801;SDS011;1916;51.798;12.246;2023-02-05T00:35:28;16.73;;;11.07;;
3801;SDS011;1916;51.798;12.246;2023-02-05T00:37:30;13.70;;;10.23;;
3801;SDS011;1916;51.798;12.246;2023-02-05T00:39:32;16.00;;;11.00;;
3801;SDS011;1916;51.798;12.246;2023-02-05T00:41:37;17.60;;;10.90;;
3801;SDS011;1916;51.798;12.246;2023-02-05T00:43:40;17.60;;;10.63;;
3801;SDS011;1916;51.798;12.246;2023-02-05T00:45:44;13.00;;;10.33;;
3801;SDS011;1916;51.798;12.246;2023-02-05T00:47:46;13.13;;;9.90;;
3801;SDS011;1916;51.798;12.246;2023-02-05T00:49:49;15.43;;;10.73;;
3801;SDS011;1916;51.798;12.246;2023-02-05T00:51:51;13.93;;;10.50;;
3801;SDS011;1916;51.798;12.246;2023-02-05T00:53:53;15.90;;;11.40;;
3801;SDS011;1916;51.798;12.246;2023-02-05T00:55:56;15.70;;;10.00;;
3801;SDS011;1916;51.798;12.246;2023-02-05T00:57:58;15.90;;;10.63;;
3801;SDS011;1916;51.798;12.246;2023-02-05T01:00:02;14.13;;;10.10;;
3801;SDS011;1916;51.798;12.246;2023-02-05T01:02:04;12.17;;;8.87;;
3801;SDS011;1916;51.798;12.246;2023-02-05T01:04:07;13.13;;;9.43;;
3801;SDS011;1916;51.798;12.246;2023-02-05T01:06:09;12.47;;;7.93;;
3801;SDS011;1916;51.798;12.246;2023-02-05T01:08:12;11.40;;;8.50;;
3801;SDS011;1916;51.798;12.246;2023-02-05T01:10:15;11.93;;;8.00;;
3801;SDS011;1916;51.798;12.246;2023-02-05T01:12:17;11.63;;;8.27;;
3801;SDS011;1916;51.798;12.246;2023-02-05T01:14:19;11.47;;;8.33;;
3801;SDS011;1916;51.798;12.246;2023-02-05T01:16:22;10.27;;;8.23;;
3801;SDS011;1916;51.798;12.246;2023-02-05T01:18:24;11.27;;;7.93;;
3801;SDS011;1916;51.798;12.246;2023-02-05T01:20:26;11.03;;;7.70;;
3801;SDS011;1916;51.798;12.246;2023-02-05T01:22:29;14.33;;;9.20;;
3801;SDS011;1916;51.798;12.246;2023-02-05T01:24:32;10.10;;;8.10;;
3801;SDS011;1916;51.798;12.246;2023-02-05T01:26:34;11.50;;;7.50;;
3801;SDS011;1916;51.798;12.246;2023-02-05T01:28:36;9.87;;;7.30;;
3801;SDS011;1916;51.798;12.246;2023-02-05T01:30:39;12.67;;;7.73;;
3801;SDS011;1916;51.798;12.246;2023-02-05T01:32:41;9.70;;;7.27;;
3801;SDS011;1916;51.798;12.246;2023-02-05T01:34:44;19.93;;;8.50;;
3801;SDS011;1916;51.798;12.246;2023-02-05T01:36:46;11.20;;;7.60;;
3801;SDS011;1916;51.798;12.246;2023-02-05T01:38:50;9.13;;;6.83;;
3801;SDS011;1916;51.798;12.246;2023-02-05T01:40:55;8.13;;;6.70;;
3801;SDS011;1916;51.798;12.246;2023-02-05T01:42:57;9.17;;;7.20;;
3801;SDS011;1916;51.798;12.246;2023-02-05T01:47:41;11.87;;;7.47;;
3801;SDS011;1916;51.798;12.246;2023-02-05T01:49:43;13.63;;;7.27;;
3801;SDS011;1916;51.798;12.246;2023-02-05T01:51:47;9.77;;;7.30;;
3801;SDS011;1916;51.798;12.246;2023-02-05T01:53:50;11.33;;;7.60;;
3801;SDS011;1916;51.798;12.246;2023-02-05T01:55:55;12.30;;;7.80;;
3801;SDS011;1916;51.798;12.246;2023-02-05T01:57:59;12.00;;;7.70;;
3801;SDS011;1916;51.798;12.246;2023-02-05T02:00:03;13.43;;;7.67;;
3801;SDS011;1916;51.798;12.246;2023-02-05T02:02:15;9.50;;;7.30;;
3801;SDS011;1916;51.798;12.246;2023-02-05T02:06:49;10.57;;;8.40;;
3801;SDS011;1916;51.798;12.246;2023-02-05T02:08:51;12.23;;;7.53;;
3801;SDS011;1916;51.798;12.246;2023-02-05T02:10:54;11.10;;;7.67;;
3801;SDS011;1916;51.798;12.246;2023-02-05T02:12:57;10.53;;;8.27;;
3801;SDS011;1916;51.798;12.246;2023-02-05T02:15:00;11.50;;;7.80;;
3801;SDS011;1916;51.798;12.246;2023-02-05T02:17:05;9.60;;;7.10;;
3801;SDS011;1916;51.798;12.246;2023-02-05T02:19:15;10.90;;;7.83;;
3801;SDS011;1916;51.798;12.246;2023-02-05T02:21:28;10.50;;;7.40;;
3801;SDS011;1916;51.798;12.246;2023-02-05T02:24:04;12.23;;;6.70;;
3801;SDS011;1916;51.798;12.246;2023-02-05T02:32:44;9.43;;;6.83;;
3801;SDS011;1916;51.798;12.246;2023-02-05T02:35:03;9.33;;;6.60;;
3801;SDS011;1916;51.798;12.246;2023-02-05T02:37:13;9.03;;;5.97;;
3801;SDS011;1916;51.798;12.246;2023-02-05T02:39:24;9.57;;;6.70;;
3801;SDS011;1916;51.798;12.246;2023-02-05T02:41:32;10.80;;;7.20;;
3801;SDS011;1916;51.798;12.246;2023-02-05T02:43:44;10.03;;;6.37;;
3801;SDS011;1916;51.798;12.246;2023-02-05T02:45:50;7.70;;;6.57;;
3801;SDS011;1916;51.798;12.246;2023-02-05T02:47:56;8.70;;;6.47;;
3801;SDS011;1916;51.798;12.246;2023-02-05T02:50:00;9.07;;;6.03;;
3801;SDS011;1916;51.798;12.246;2023-02-05T02:52:05;9.73;;;5.60;;
3801;SDS011;1916;51.798;12.246;2023-02-05T02:54:10;8.57;;;5.43;;
3801;SDS011;1916;51.798;12.246;2023-02-05T02:56:14;7.70;;;5.33;;
3801;SDS011;1916;51.798;12.246;2023-02-05T02:58:22;6.50;;;5.20;;
3801;SDS011;1916;51.798;12.246;2023-02-05T03:00:27;9.60;;;6.70;;
3801;SDS011;1916;51.798;12.246;2023-02-05T03:02:31;9.37;;;5.50;;
3801;SDS011;1916;51.798;12.246;2023-02-05T03:04:36;6.17;;;4.50;;
3801;SDS011;1916;51.798;12.246;2023-02-05T03:06:42;8.20;;;5.40;;
3801;SDS011;1916;51.798;12.246;2023-02-05T03:11:18;7.00;;;5.63;;
3801;SDS011;1916;51.798;12.246;2023-02-05T03:13:20;6.33;;;5.27;;
3801;SDS011;1916;51.798;12.246;2023-02-05T03:15:28;7.50;;;4.93;;
3801;SDS011;1916;51.798;12.246;2023-02-05T03:17:34;6.73;;;5.00;;
3801;SDS011;1916;51.798;12.246;2023-02-05T03:19:37;7.40;;;4.97;;
3801;SDS011;1916;51.798;12.246;2023-02-05T03:21:44;5.53;;;4.57;;
3801;SDS011;1916;51.798;12.246;2023-02-05T03:23:48;11.23;;;5.33;;
3801;SDS011;1916;51.798;12.246;2023-02-05T03:25:50;8.30;;;4.77;;
3801;SDS011;1916;51.798;12.246;2023-02-05T03:27:57;7.43;;;4.00;;
3801;SDS011;1916;51.798;12.246;2023-02-05T03:30:04;5.20;;;4.70;;
3801;SDS011;1916;51.798;12.246;2023-02-05T03:34:20;5.37;;;4.47;;
3801;SDS011;1916;51.798;12.246;2023-02-05T03:36:39;4.83;;;4.17;;
3801;SDS011;1916;51.798;12.246;2023-02-05T03:41:03;11.03;;;4.30;;
3801;SDS011;1916;51.798;12.246;2023-02-05T03:43:18;6.57;;;4.40;;
3801;SDS011;1916;51.798;12.246;2023-02-05T03:52:34;5.07;;;4.07;;
3801;SDS011;1916;51.798;12.246;2023-02-05T03:54:42;7.90;;;4.20;;
3801;SDS011;1916;51.798;12.246;2023-02-05T03:56:59;5.33;;;3.90;;
3801;SDS011;1916;51.798;12.246;2023-02-05T03:59:09;8.20;;;4.03;;
3801;SDS011;1916;51.798;12.246;2023-02-05T04:01:12;4.73;;;3.93;;
3801;SDS011;1916;51.798;12.246;2023-02-05T04:03:16;5.23;;;4.33;;
3801;SDS011;1916;51.798;12.246;2023-02-05T04:05:19;8.80;;;4.63;;
3801;SDS011;1916;51.798;12.246;2023-02-05T04:07:27;4.30;;;3.90;;
3801;SDS011;1916;51.798;12.246;2023-02-05T04:09:30;9.73;;;4.90;;
3801;SDS011;1916;51.798;12.246;2023-02-05T04:11:32;4.20;;;3.80;;
3801;SDS011;1916;51.798;12.246;2023-02-05T04:13:37;6.33;;;4.10;;
3801;SDS011;1916;51.798;12.246;2023-02-05T04:15:42;5.73;;;4.03;;
3801;SDS011;1916;51.798;12.246;2023-02-05T04:17:47;3.73;;;3.43;;
3801;SDS011;1916;51.798;12.246;2023-02-05T04:19:49;4.60;;;4.15;;
3801;SDS011;1916;51.798;12.246;2023-02-05T04:21:53;4.27;;;3.93;;
3801;SDS011;1916;51.798;12.246;2023-02-05T04:23:55;7.80;;;3.97;;
3801;SDS011;1916;51.798;12.246;2023-02-05T04:25:58;4.87;;;4.03;;
3801;SDS011;1916;51.798;12.246;2023-02-05T04:28:09;6.10;;;4.47;;
3801;SDS011;1916;51.798;12.246;2023-02-05T04:30:11;5.50;;;4.00;;
3801;SDS011;1916;51.798;12.246;2023-02-05T04:32:17;4.77;;;3.73;;
3801;SDS011;1916;51.798;12.246;2023-02-05T04:34:20;3.50;;;3.27;;
3801;SDS011;1916;51.798;12.246;2023-02-05T04:36:23;4.80;;;3.70;;
3801;SDS011;1916;51.798;12.246;2023-02-05T04:38:26;8.00;;;3.97;;
3801;SDS011;1916;51.798;12.246;2023-02-05T04:40:29;5.60;;;4.23;;
3801;SDS011;1916;51.798;12.246;2023-02-05T04:42:31;5.17;;;4.00;;
3801;SDS011;1916;51.798;12.246;2023-02-05T04:44:33;6.27;;;3.77;;
3801;SDS011;1916;51.798;12.246;2023-02-05T04:46:35;5.80;;;3.90;;
3801;SDS011;1916;51.798;12.246;2023-02-05T04:48:37;9.23;;;4.17;;
3801;SDS011;1916;51.798;12.246;2023-02-05T04:50:40;5.80;;;4.40;;
3801;SDS011;1916;51.798;12.246;2023-02-05T04:52:42;7.27;;;4.40;;
3801;SDS011;1916;51.798;12.246;2023-02-05T04:54:44;5.20;;;4.10;;
3801;SDS011;1916;51.798;12.246;2023-02-05T04:56:46;8.70;;;4.83;;
3801;SDS011;1916;51.798;12.246;2023-02-05T04:58:49;4.83;;;4.37;;
3801;SDS011;1916;51.798;12.246;2023-02-05T05:00:51;7.47;;;4.10;;
3801;SDS011;1916;51.798;12.246;2023-02-05T05:02:53;4.40;;;4.00;;
3801;SDS011;1916;51.798;12.246;2023-02-05T05:04:55;4.70;;;4.23;;
3801;SDS011;1916;51.798;12.246;2023-02-05T05:06:58;5.50;;;4.27;;
3801;SDS011;1916;51.798;12.246;2023-02-05T05:09:00;6.40;;;4.27;;
3801;SDS011;1916;51.798;12.246;2023-02-05T05:11:12;5.97;;;4.40;;
3801;SDS011;1916;51.798;12.246;2023-02-05T05:13:15;5.67;;;4.37;;
3801;SDS011;1916;51.798;12.246;2023-02-05T05:15:18;6.10;;;4.30;;
3801;SDS011;1916;51.798;12.246;2023-02-05T05:17:20;6.30;;;4.60;;
3801;SDS011;1916;51.798;12.246;2023-02-05T05:19:22;4.60;;;3.97;;
3801;SDS011;1916;51.798;12.246;2023-02-05T05:21:25;5.50;;;4.63;;
3801;SDS011;1916;51.798;12.246;2023-02-05T05:23:27;7.10;;;4.20;;
3801;SDS011;1916;51.798;12.246;2023-02-05T05:25:30;5.23;;;4.70;;
3801;SDS011;1916;51.798;12.246;2023-02-05T05:27:33;5.60;;;4.40;;
3801;SDS011;1916;51.798;12.246;2023-02-05T05:29:35;7.87;;;4.63;;
3801;SDS011;1916;51.798;12.246;2023-02-05T05:31:38;7.00;;;5.27;;
3801;SDS011;1916;51.798;12.246;2023-02-05T05:33:41;4.50;;;3.93;;
3801;SDS011;1916;51.798;12.246;2023-02-05T05:35:44;6.20;;;4.00;;
3801;SDS011;1916;51.798;12.246;2023-02-05T05:37:46;7.97;;;4.50;;
3801;SDS011;1916;51.798;12.246;2023-02-05T05:39:48;9.93;;;4.50;;
3801;SDS011;1916;51.798;12.246;2023-02-05T05:42:10;4.80;;;4.30;;
3801;SDS011;1916;51.798;12.246;2023-02-05T05:44:31;5.20;;;4.20;;
3801;SDS011;1916;51.798;12.246;2023-02-05T05:46:33;8.63;;;4.63;;
3801;SDS011;1916;51.798;12.246;2023-02-05T05:48:37;5.03;;;4.20;;
3801;SDS011;1916;51.798;12.246;2023-02-05T05:50:39;6.17;;;4.67;;
3801;SDS011;1916;51.798;12.246;2023-02-05T05:52:42;6.93;;;4.67;;
3801;SDS011;1916;51.798;12.246;2023-02-05T05:54:44;6.73;;;4.53;;
3801;SDS011;1916;51.798;12.246;2023-02-05T05:56:47;7.70;;;4.73;;
3801;SDS011;1916;51.798;12.246;2023-02-05T05:58:50;9.20;;;4.57;;
3801;SDS011;1916;51.798;12.246;2023-02-05T06:00:53;6.90;;;5.27;;
3801;SDS011;1916;51.798;12.246;2023-02-05T06:02:55;5.63;;;4.27;;
3801;SDS011;1916;51.798;12.246;2023-02-05T06:04:57;8.50;;;5.50;;
3801;SDS011;1916;51.798;12.246;2023-02-05T06:07:00;7.07;;;5.50;;
3801;SDS011;1916;51.798;12.246;2023-02-05T06:09:03;10.70;;;5.80;;
3801;SDS011;1916;51.798;12.246;2023-02-05T06:11:05;8.10;;;5.60;;
3801;SDS011;1916;51.798;12.246;2023-02-05T06:13:07;6.47;;;5.00;;
3801;SDS011;1916;51.798;12.246;2023-02-05T06:15:09;9.23;;;6.13;;
3801;SDS011;1916;51.798;12.246;2023-02-05T06:17:12;5.57;;;4.37;;
3801;SDS011;1916;51.798;12.246;2023-02-05T06:19:14;8.73;;;5.07;;
3801;SDS011;1916;51.798;12.246;2023-02-05T06:21:16;5.33;;;4.17;;
3801;SDS011;1916;51.798;12.246;2023-02-05T06:23:19;5.83;;;4.53;;
3801;SDS011;1916;51.798;12.246;2023-02-05T06:25:21;5.10;;;4.10;;
3801;SDS011;1916;51.798;12.246;2023-02-05T06:27:23;4.70;;;4.20;;
3801;SDS011;1916;51.798;12.246;2023-02-05T06:29:25;5.60;;;4.00;;
3801;SDS011;1916;51.798;12.246;2023-02-05T06:31:29;6.57;;;4.23;;
3801;SDS011;1916;51.798;12.246;2023-02-05T06:33:32;8.63;;;4.90;;
3801;SDS011;1916;51.798;12.246;2023-02-05T06:35:34;7.87;;;4.20;;
3801;SDS011;1916;51.798;12.246;2023-02-05T06:37:38;6.47;;;4.77;;
3801;SDS011;1916;51.798;12.246;2023-02-05T06:39:48;6.90;;;4.57;;
3801;SDS011;1916;51.798;12.246;2023-02-05T06:41:50;4.97;;;4.10;;
3801;SDS011;1916;51.798;12.246;2023-02-05T06:43:52;3.73;;;3.20;;
3801;SDS011;1916;51.798;12.246;2023-02-05T06:45:55;5.88;;;3.80;;
3801;SDS011;1916;51.798;12.246;2023-02-05T06:47:57;5.87;;;4.40;;
3801;SDS011;1916;51.798;12.246;2023-02-05T06:49:59;3.97;;;3.47;;
3801;SDS011;1916;51.798;12.246;2023-02-05T06:52:02;5.07;;;3.30;;
3801;SDS011;1916;51.798;12.246;2023-02-05T06:54:05;3.60;;;3.30;;
3801;SDS011;1916;51.798;12.246;2023-02-05T06:56:07;8.03;;;3.40;;
3801;SDS011;1916;51.798;12.246;2023-02-05T06:58:09;8.50;;;4.30;;
3801;SDS011;1916;51.798;12.246;2023-02-05T07:00:12;4.83;;;4.20;;
3801;SDS011;1916;51.798;12.246;2023-02-05T07:02:15;7.20;;;3.77;;
3801;SDS011;1916;51.798;12.246;2023-02-05T07:04:17;4.33;;;3.83;;
3801;SDS011;1916;51.798;12.246;2023-02-05T07:06:19;4.13;;;3.53;;
3801;SDS011;1916;51.798;12.246;2023-02-05T07:08:22;4.00;;;3.60;;
3801;SDS011;1916;51.798;12.246;2023-02-05T07:10:24;7.50;;;4.47;;
3801;SDS011;1916;51.798;12.246;2023-02-05T07:12:26;5.80;;;4.33;;
3801;SDS011;1916;51.798;12.246;2023-02-05T07:14:28;6.03;;;4.20;;
3801;SDS011;1916;51.798;12.246;2023-02-05T07:16:32;7.93;;;4.17;;
3801;SDS011;1916;51.798;12.246;2023-02-05T07:18:34;5.20;;;4.10;;
3801;SDS011;1916;51.798;12.246;2023-02-05T07:20:36;4.43;;;4.03;;
3801;SDS011;1916;51.798;12.246;2023-02-05T07:22:38;4.97;;;4.33;;
3801;SDS011;1916;51.798;12.246;2023-02-05T07:24:41;6.50;;;4.13;;
3801;SDS011;1916;51.798;12.246;2023-02-05T07:26:43;6.50;;;4.60;;
3801;SDS011;1916;51.798;12.246;2023-02-05T07:28:45;7.30;;;4.70;;
3801;SDS011;1916;51.798;12.246;2023-02-05T07:30:47;6.50;;;4.53;;
3801;SDS011;1916;51.798;12.246;2023-02-05T07:32:50;15.53;;;4.13;;
3801;SDS011;1916;51.798;12.246;2023-02-05T07:34:52;4.07;;;3.67;;
3801;SDS011;1916;51.798;12.246;2023-02-05T07:36:54;6.40;;;4.40;;
3801;SDS011;1916;51.798;12.246;2023-02-05T07:38:56;7.73;;;3.40;;
3801;SDS011;1916;51.798;12.246;2023-02-05T07:41:01;3.83;;;3.53;;
3801;SDS011;1916;51.798;12.246;2023-02-05T07:43:04;4.77;;;4.27;;
3801;SDS011;1916;51.798;12.246;2023-02-05T07:45:07;4.87;;;3.73;;
3801;SDS011;1916;51.798;12.246;2023-02-05T07:47:09;4.83;;;3.27;;
3801;SDS011;1916;51.798;12.246;2023-02-05T07:49:12;5.53;;;4.67;;
3801;SDS011;1916;51.798;12.246;2023-02-05T07:51:18;5.53;;;3.70;;
3801;SDS011;1916;51.798;12.246;2023-02-05T07:53:21;4.60;;;4.20;;
3801;SDS011;1916;51.798;12.246;2023-02-05T07:55:23;6.60;;;4.13;;
3801;SDS011;1916;51.798;12.246;2023-02-05T07:57:26;5.57;;;4.60;;
3801;SDS011;1916;51.798;12.246;2023-02-05T07:59:28;5.67;;;4.90;;
3801;SDS011;1916;51.798;12.246;2023-02-05T08:01:30;6.97;;;4.93;;
3801;SDS011;1916;51.798;12.246;2023-02-05T08:03:32;5.63;;;4.60;;
3801;SDS011;1916;51.798;12.246;2023-02-05T08:05:35;8.77;;;5.40;;
3801;SDS011;1916;51.798;12.246;2023-02-05T08:07:38;9.50;;;5.03;;
3801;SDS011;1916;51.798;12.246;2023-02-05T08:09:40;7.00;;;4.70;;
3801;SDS011;1916;51.798;12.246;2023-02-05T08:11:42;9.03;;;5.60;;
3801;SDS011;1916;51.798;12.246;2023-02-05T08:13:44;4.27;;;3.57;;
3801;SDS011;1916;51.798;12.246;2023-02-05T08:15:47;6.40;;;4.20;;
3801;SDS011;1916;51.798;12.246;2023-02-05T08:17:49;9.00;;;4.60;;
3801;SDS011;1916;51.798;12.246;2023-02-05T08:19:51;7.40;;;4.60;;
3801;SDS011;1916;51.798;12.246;2023-02-05T08:21:53;7.97;;;4.30;;
3801;SDS011;1916;51.798;12.246;2023-02-05T08:23:55;8.83;;;4.10;;
3801;SDS011;1916;51.798;12.246;2023-02-05T08:25:59;5.77;;;4.37;;
3801;SDS011;1916;51.798;12.246;2023-02-05T08:28:01;4.23;;;3.73;;
3801;SDS011;1916;51.798;12.246;2023-02-05T08:30:04;8.20;;;4.30;;
3801;SDS011;1916;51.798;12.246;2023-02-05T08:32:07;6.03;;;3.57;;
3801;SDS011;1916;51.798;12.246;2023-02-05T08:34:09;5.90;;;3.93;;
3801;SDS011;1916;51.798;12.246;2023-02-05T08:36:11;4.50;;;3.70;;
3801;SDS011;1916;51.798;12.246;2023-02-05T08:38:13;5.30;;;4.03;;
3801;SDS011;1916;51.798;12.246;2023-02-05T08:40:15;4.40;;;3.60;;
3801;SDS011;1916;51.798;12.246;2023-02-05T08:42:18;5.43;;;3.53;;
3801;SDS011;1916;51.798;12.246;2023-02-05T08:44:20;4.63;;;3.50;;
3801;SDS011;1916;51.798;12.246;2023-02-05T08:46:22;6.07;;;3.40;;
3801;SDS011;1916;51.798;12.246;2023-02-05T08:48:44;3.83;;;3.23;;
3801;SDS011;1916;51.798;12.246;2023-02-05T08:50:48;3.63;;;3.33;;
3801;SDS011;1916;51.798;12.246;2023-02-05T08:52:50;3.83;;;3.20;;
3801;SDS011;1916;51.798;12.246;2023-02-05T08:54:52;4.50;;;3.30;;
3801;SDS011;1916;51.798;12.246;2023-02-05T08:56:55;3.73;;;3.33;;
3801;SDS011;1916;51.798;12.246;2023-02-05T08:58:57;5.93;;;3.80;;
3801;SDS011;1916;51.798;12.246;2023-02-05T09:01:00;4.47;;;3.53;;
3801;SDS011;1916;51.798;12.246;2023-02-05T09:03:03;3.93;;;3.30;;
3801;SDS011;1916;51.798;12.246;2023-02-05T09:05:07;5.83;;;3.70;;
3801;SDS011;1916;51.798;12.246;2023-02-05T09:07:10;3.43;;;3.13;;
3801;SDS011;1916;51.798;12.246;2023-02-05T09:09:12;3.83;;;3.40;;
3801;SDS011;1916;51.798;12.246;2023-02-05T09:11:19;9.53;;;3.57;;
3801;SDS011;1916;51.798;12.246;2023-02-05T09:13:21;6.10;;;3.67;;
3801;SDS011;1916;51.798;12.246;2023-02-05T09:15:24;6.97;;;3.47;;
3801;SDS011;1916;51.798;12.246;2023-02-05T09:17:26;6.77;;;3.37;;
3801;SDS011;1916;51.798;12.246;2023-02-05T09:19:28;4.93;;;3.57;;
3801;SDS011;1916;51.798;12.246;2023-02-05T09:21:33;3.80;;;3.37;;
3801;SDS011;1916;51.798;12.246;2023-02-05T09:23:36;3.63;;;3.33;;
3801;SDS011;1916;51.798;12.246;2023-02-05T09:25:39;3.77;;;3.33;;
3801;SDS011;1916;51.798;12.246;2023-02-05T09:27:42;4.23;;;3.40;;
3801;SDS011;1916;51.798;12.246;2023-02-05T09:29:44;4.20;;;3.40;;
3801;SDS011;1916;51.798;12.246;2023-02-05T09:31:46;3.93;;;3.03;;
3801;SDS011;1916;51.798;12.246;2023-02-05T09:33:48;3.93;;;2.70;;
3801;SDS011;1916;51.798;12.246;2023-02-05T09:35:50;3.47;;;3.17;;
3801;SDS011;1916;51.798;12.246;2023-02-05T09:37:52;4.17;;;3.30;;
3801;SDS011;1916;51.798;12.246;2023-02-05T09:39:54;3.97;;;3.57;;
3801;SDS011;1916;51.798;12.246;2023-02-05T09:42:37;4.20;;;3.20;;
3801;SDS011;1916;51.798;12.246;2023-02-05T09:46:59;4.47;;;3.23;;
3801;SDS011;1916;51.798;12.246;2023-02-05T09:49:09;3.83;;;3.53;;
3801;SDS011;1916;51.798;12.246;2023-02-05T09:51:21;3.63;;;3.20;;
3801;SDS011;1916;51.798;12.246;2023-02-05T09:53:27;3.73;;;3.43;;
3801;SDS011;1916;51.798;12.246;2023-02-05T09:55:35;3.90;;;3.47;;
3801;SDS011;1916;51.798;12.246;2023-02-05T09:57:39;6.20;;;3.27;;
3801;SDS011;1916;51.798;12.246;2023-02-05T09:59:43;3.80;;;3.20;;
3801;SDS011;1916;51.798;12.246;2023-02-05T10:01:50;3.67;;;3.37;;
3801;SDS011;1916;51.798;12.246;2023-02-05T10:03:55;3.80;;;3.40;;
3801;SDS011;1916;51.798;12.246;2023-02-05T10:11:03;4.83;;;3.77;;
3801;SDS011;1916;51.798;12.246;2023-02-05T10:13:31;6.73;;;3.07;;
3801;SDS011;1916;51.798;12.246;2023-02-05T10:16:16;4.33;;;2.77;;
3801;SDS011;1916;51.798;12.246;2023-02-05T10:18:15;3.87;;;3.00;;
3801;SDS011;1916;51.798;12.246;2023-02-05T10:29:47;3.30;;;3.03;;
3801;SDS011;1916;51.798;12.246;2023-02-05T10:32:05;2.80;;;2.60;;
3801;SDS011;1916;51.798;12.246;2023-02-05T10:36:36;3.13;;;2.77;;
3801;SDS011;1916;51.798;12.246;2023-02-05T10:38:40;4.47;;;2.93;;
3801;SDS011;1916;51.798;12.246;2023-02-05T10:40:44;14.37;;;3.23;;
3801;SDS011;1916;51.798;12.246;2023-02-05T10:42:50;6.97;;;3.23;;
3801;SDS011;1916;51.798;12.246;2023-02-05T10:47:15;5.13;;;2.83;;
3801;SDS011;1916;51.798;12.246;2023-02-05T10:49:22;3.60;;;3.30;;
3801;SDS011;1916;51.798;12.246;2023-02-05T10:51:31;4.43;;;3.30;;
3801;SDS011;1916;51.798;12.246;2023-02-05T10:53:37;3.50;;;3.20;;
3801;SDS011;1916;51.798;12.246;2023-02-05T10:55:40;4.10;;;2.93;;
3801;SDS011;1916;51.798;12.246;2023-02-05T10:57:42;3.87;;;3.20;;
3801;SDS011;1916;51.798;12.246;2023-02-05T10:59:54;3.40;;;2.90;;
3801;SDS011;1916;51.798;12.246;2023-02-05T11:02:05;3.20;;;2.80;;
3801;SDS011;1916;51.798;12.246;2023-02-05T11:04:13;6.83;;;4.30;;
3801;SDS011;1916;51.798;12.246;2023-02-05T11:06:16;3.37;;;3.07;;
3801;SDS011;1916;51.798;12.246;2023-02-05T11:08:31;7.03;;;4.30;;
3801;SDS011;1916;51.798;12.246;2023-02-05T11:10:35;4.10;;;3.70;;
3801;SDS011;1916;51.798;12.246;2023-02-05T11:12:38;5.60;;;3.57;;
3801;SDS011;1916;51.798;12.246;2023-02-05T11:14:42;6.20;;;4.53;;
3801;SDS011;1916;51.798;12.246;2023-02-05T11:16:45;4.40;;;4.00;;
3801;SDS011;1916;51.798;12.246;2023-02-05T11:18:54;4.90;;;3.57;;
3801;SDS011;1916;51.798;12.246;2023-02-05T11:21:00;8.67;;;4.87;;
3801;SDS011;1916;51.798;12.246;2023-02-05T11:23:17;8.80;;;4.33;;
3801;SDS011;1916;51.798;12.246;2023-02-05T11:25:21;7.37;;;4.77;;
3801;SDS011;1916;51.798;12.246;2023-02-05T11:27:31;4.37;;;3.43;;
3801;SDS011;1916;51.798;12.246;2023-02-05T11:29:35;4.53;;;3.50;;
3801;SDS011;1916;51.798;12.246;2023-02-05T11:31:37;3.83;;;3.27;;
3801;SDS011;1916;51.798;12.246;2023-02-05T11:33:39;4.03;;;3.60;;
3801;SDS011;1916;51.798;12.246;2023-02-05T11:35:47;8.33;;;4.10;;
3801;SDS011;1916;51.798;12.246;2023-02-05T11:40:02;3.53;;;3.23;;
3801;SDS011;1916;51.798;12.246;2023-02-05T11:42:15;4.50;;;3.00;;
3801;SDS011;1916;51.798;12.246;2023-02-05T11:44:26;3.97;;;3.33;;
3801;SDS011;1916;51.798;12.246;2023-02-05T11:46:33;3.10;;;2.80;;
3801;SDS011;1916;51.798;12.246;2023-02-05T11:48:50;6.40;;;3.23;;
3801;SDS011;1916;51.798;12.246;2023-02-05T11:50:59;3.63;;;2.90;;
3801;SDS011;1916;51.798;12.246;2023-02-05T11:53:07;3.50;;;3.17;;
3801;SDS011;1916;51.798;12.246;2023-02-05T11:55:24;5.40;;;3.43;;
3801;SDS011;1916;51.798;12.246;2023-02-05T11:57:33;3.87;;;3.47;;
3801;SDS011;1916;51.798;12.246;2023-02-05T11:59:39;4.33;;;3.93;;
3801;SDS011;1916;51.798;12.246;2023-02-05T12:01:41;3.43;;;3.13;;
3801;SDS011;1916;51.798;12.246;2023-02-05T12:03:46;3.30;;;3.03;;
3801;SDS011;1916;51.798;12.246;2023-02-05T12:06:19;3.50;;;3.20;;
3801;SDS011;1916;51.798;12.246;2023-02-05T12:10:47;3.20;;;2.90;;
3801;SDS011;1916;51.798;12.246;2023-02-05T12:19:24;3.20;;;2.83;;
3801;SDS011;1916;51.798;12.246;2023-02-05T12:26:28;2.70;;;2.50;;
3801;SDS011;1916;51.798;12.246;2023-02-05T12:28:53;4.87;;;3.40;;
3801;SDS011;1916;51.798;12.246;2023-02-05T12:31:20;3.47;;;2.63;;
3801;SDS011;1916;51.798;12.246;2023-02-05T12:33:42;3.43;;;3.13;;
3801;SDS011;1916;51.798;12.246;2023-02-05T12:43:20;3.63;;;2.63;;
3801;SDS011;1916;51.798;12.246;2023-02-05T12:52:37;8.60;;;2.77;;
3801;SDS011;1916;51.798;12.246;2023-02-05T12:57:31;3.93;;;3.40;;
3801;SDS011;1916;51.798;12.246;2023-02-05T12:59:47;3.20;;;3.00;;
3801;SDS011;1916;51.798;12.246;2023-02-05T13:01:52;4.17;;;3.60;;
3801;SDS011;1916;51.798;12.246;2023-02-05T13:03:58;3.20;;;2.83;;
3801;SDS011;1916;51.798;12.246;2023-02-05T13:06:15;3.73;;;3.20;;
3801;SDS011;1916;51.798;12.246;2023-02-05T13:10:47;3.03;;;2.80;;
3801;SDS011;1916;51.798;12.246;2023-02-05T13:12:53;4.90;;;3.87;;
3801;SDS011;1916;51.798;12.246;2023-02-05T13:15:12;3.30;;;3.00;;
3801;SDS011;1916;51.798;12.246;2023-02-05T13:17:24;3.10;;;2.70;;
3801;SDS011;1916;51.798;12.246;2023-02-05T13:19:37;3.50;;;3.03;;
3801;SDS011;1916;51.798;12.246;2023-02-05T13:21:41;7.37;;;3.30;;
3801;SDS011;1916;51.798;12.246;2023-02-05T13:24:11;3.47;;;3.17;;
3801;SDS011;1916;51.798;12.246;2023-02-05T13:26:59;4.70;;;2.83;;
3801;SDS011;1916;51.798;12.246;2023-02-05T13:29:20;3.93;;;3.07;;
3801;SDS011;1916;51.798;12.246;2023-02-05T13:31:32;5.43;;;2.80;;
3801;SDS011;1916;51.798;12.246;2023-02-05T13:33:49;4.10;;;3.50;;
3801;SDS011;1916;51.798;12.246;2023-02-05T13:43:19;3.17;;;2.90;;
3801;SDS011;1916;51.798;12.246;2023-02-05T13:50:04;4.50;;;3.40;;
3801;SDS011;1916;51.798;12.246;2023-02-05T13:52:09;2.70;;;2.50;;
3801;SDS011;1916;51.798;12.246;2023-02-05T13:59:03;4.27;;;3.20;;
3801;SDS011;1916;51.798;12.246;2023-02-05T14:01:16;3.27;;;2.20;;
3801;SDS011;1916;51.798;12.246;2023-02-05T14:03:32;3.13;;;2.50;;
3801;SDS011;1916;51.798;12.246;2023-02-05T14:05:38;2.77;;;2.57;;
3801;SDS011;1916;51.798;12.246;2023-02-05T14:07:43;2.37;;;2.20;;
3801;SDS011;1916;51.798;12.246;2023-02-05T14:09:50;3.10;;;2.50;;
3801;SDS011;1916;51.798;12.246;2023-02-05T14:11:57;2.37;;;2.07;;
3801;SDS011;1916;51.798;12.246;2023-02-05T14:20:41;6.80;;;3.63;;
3801;SDS011;1916;51.798;12.246;2023-02-05T14:22:46;4.03;;;3.70;;
3801;SDS011;1916;51.798;12.246;2023-02-05T14:24:48;6.50;;;4.27;;
3801;SDS011;1916;51.798;12.246;2023-02-05T14:26:51;4.60;;;4.00;;
3801;SDS011;1916;51.798;12.246;2023-02-05T14:28:58;7.97;;;4.57;;
3801;SDS011;1916;51.798;12.246;2023-02-05T14:31:03;5.43;;;3.80;;